Terminal Aerodrome Forecast
Issued by NWS

Home | Current Version | Previous Version | Text Only | Print | Product List | Glossary On
Versions: 1 2 3 4 5 6 7 8 9 10 11 12 13 14
000
FTUS43 KSGF 211120
TAFJLN
TAF
KJLN 211120Z 2112/2212 21011KT P6SM BKN250 WS016/26035KT
     FM211530 27009KT P6SM BKN200
     FM211830 35015G24KT P6SM SKC
     FM220100 36011KT P6SM SKC=

USA.gov is the U.S. government's official web portal to all federal, state and local government web resources and services.